Clarksville, NY

6:32 AM EST on November 14, 2019 (GMT -0500)
Onesquethaw Creek | | Change Station

Elev 424 ft 42.56 °N, 73.93 °W | Updated 14 seconds ago

Partly Cloudy
Partly Cloudy
18 °F
Feels Like 18 °F
N
0
Wind Variable Wind from NNE
Gusts 0.0 mph

Today
High -- | Low -- °F
--% Chance of Precip.
Yesterday
High -- | Low -- °F
Precip. -- in
Pressure 30.41 in
Visibility 10.0 miles
Clouds Few 11000 ft
Scattered Clouds 15000 ft
Overcast 26000 ft
Windchill 18 °F
Dew Point 16 °F
Humidity 91%
Rainfall 0.00 in
Snow Depth Not available.
6:45 AM 4:34 PM
Waning Gibbous, 96% visible
METAR KALB 141051Z 18004KT 10SM FEW110 SCT150 OVC260 M06/M12 A3040 RMK AO2 SLP297 T10561122
Pressure 30.41 in
Visibility 10.0 miles
Clouds Few 11000 ft
Scattered Clouds 15000 ft
Overcast 26000 ft
Windchill 18 °F
Dew Point 16 °F
Humidity 91%
Rainfall 0.00 in
Snow Depth Not available.
6:45 AM 4:34 PM
Waning Gibbous, 96% visible
METAR KALB 141051Z 18004KT 10SM FEW110 SCT150 OVC260 M06/M12 A3040 RMK AO2 SLP297 T10561122

Get Severe Weather Alerts

Thanks for signing up!

Be on the lookout for a verification email in your inbox.

You'll start receiving the daily forecast at 6 AM.

×

10-Day Weather Forecast

Almanac

Astronomy

Nov. 14, 2019 Rise Set
Actual Time
Civil Twilight
Nautical Twilight
Astronomical Twilight
Moon
Length of Visible Light
Length of Day
Tomorrow will be .
, % of the Moon is Illuminated

Today's Extremes

State Highs State Lows

Community

WunderPhotos

Category 6

Welcome to Category 6. This is the collective home for Weather Underground's featured writeups by Dr. Jeff Masters (right), Bob Henson (left), Chris Burt, and other regular contributors.

Nearby

Air Quality

  Air Quality AQ Index Pollutant
Not available.

Snow Depth

Station Depth Elevation

Earthquake Activity

City Distance Mag. Time & Date
Minimum magnitude displayed is 2.5.

Coastal Water Temperatures

Place Temperature

Stations

Nearby Weather Stations

Station Location Temp. Windchill Dew Point Humidity Wind Precip. Elev Updated Type
                   

Watches & Warnings

There are currently no watches in effect.